createdAt,value
2023-05-02T00:01:57.644Z,100.00
2023-05-02T00:04:25.853Z,100.00
2023-05-02T00:06:53.656Z,100.00
2023-05-02T00:09:21.636Z,100.00
2023-05-02T00:11:49.460Z,100.00
2023-05-02T00:14:17.223Z,100.00
2023-05-02T00:16:44.773Z,100.00
2023-05-02T00:19:12.592Z,100.00
2023-05-02T00:21:40.052Z,100.00
2023-05-02T00:24:07.589Z,100.00
2023-05-02T00:26:35.378Z,100.00
2023-05-02T00:29:03.219Z,100.00
2023-05-02T00:31:30.763Z,100.00
2023-05-02T00:33:58.252Z,100.00
2023-05-02T00:36:26.888Z,100.00
2023-05-02T00:38:54.615Z,100.00
2023-05-02T00:41:22.369Z,100.00
2023-05-02T00:43:50.063Z,100.00
2023-05-02T00:46:18.201Z,100.00
2023-05-02T00:48:46.033Z,100.00
2023-05-02T00:51:13.799Z,100.00
2023-05-02T00:53:41.742Z,100.00
2023-05-02T00:56:12.500Z,100.00
2023-05-02T00:58:41.505Z,100.00
2023-05-02T01:01:36.997Z,100.00
2023-05-02T01:04:13.498Z,100.00
2023-05-02T01:07:11.545Z,99.98
2023-05-02T01:10:16.665Z,100.00
2023-05-02T01:13:21.307Z,99.85
2023-05-02T01:15:52.049Z,98.94
2023-05-02T01:18:24.994Z,99.61
2023-05-02T01:20:58.499Z,98.76
2023-05-02T01:23:35.376Z,98.39
2023-05-02T01:26:05.690Z,98.50
2023-05-02T01:29:14.132Z,97.02
2023-05-02T01:31:44.394Z,96.60
2023-05-02T01:34:12.407Z,95.97
2023-05-02T01:36:45.148Z,96.47
2023-05-02T01:39:18.650Z,96.92
2023-05-02T01:41:48.204Z,97.37
2023-05-02T01:44:17.275Z,97.18
2023-05-02T01:46:45.081Z,96.43
2023-05-02T01:49:12.834Z,96.50
2023-05-02T01:51:48.864Z,96.39
2023-05-02T01:54:18.375Z,96.02
2023-05-02T01:56:47.305Z,95.95
2023-05-02T01:59:17.381Z,95.07
2023-05-02T02:01:46.321Z,94.61
2023-05-02T02:04:16.626Z,94.01
2023-05-02T02:06:48.595Z,94.05
2023-05-02T02:09:16.508Z,94.04
2023-05-02T02:11:48.219Z,93.84
2023-05-02T02:14:21.528Z,93.09
2023-05-02T02:16:53.636Z,93.43
2023-05-02T02:19:23.148Z,93.46
2023-05-02T02:21:52.050Z,93.00
2023-05-02T02:24:21.935Z,92.63
2023-05-02T02:26:50.963Z,92.66
2023-05-02T02:29:18.430Z,91.95
2023-05-02T02:31:45.928Z,91.54
2023-05-02T02:34:13.463Z,91.97
2023-05-02T02:36:51.674Z,92.00
2023-05-02T02:39:52.901Z,91.13
2023-05-02T02:42:30.190Z,91.09
2023-05-02T02:45:46.637Z,90.60
2023-05-02T02:48:32.761Z,90.63
2023-05-02T02:51:28.636Z,90.10
2023-05-02T02:54:27.834Z,90.32
2023-05-02T02:57:07.700Z,90.49
2023-05-02T02:59:41.924Z,91.17
2023-05-02T03:02:12.516Z,90.39
2023-05-02T03:04:45.064Z,90.13
2023-05-02T03:07:13.521Z,89.71
2023-05-02T03:09:45.647Z,89.42
2023-05-02T03:12:13.663Z,89.44
2023-05-02T03:14:41.844Z,89.19
2023-05-02T03:17:10.759Z,88.81
2023-05-02T03:19:38.549Z,89.26
2023-05-02T03:22:06.441Z,89.14
2023-05-02T03:24:34.216Z,88.99
2023-05-02T03:27:01.778Z,89.13
2023-05-02T03:29:29.611Z,88.67
2023-05-02T03:31:57.573Z,88.77
2023-05-02T03:34:25.536Z,88.02
2023-05-02T03:36:53.012Z,87.88
2023-05-02T03:39:20.870Z,87.71
2023-05-02T03:41:48.629Z,87.77
2023-05-02T03:44:16.298Z,87.19
2023-05-02T03:46:43.960Z,87.59
2023-05-02T03:51:40.487Z,87.28
2023-05-02T03:54:09.850Z,87.33
2023-05-02T03:56:37.358Z,86.98
2023-05-02T03:59:05.876Z,87.31
2023-05-02T04:01:33.665Z,86.86
2023-05-02T04:04:01.658Z,86.74
2023-05-02T04:06:29.556Z,86.93
2023-05-02T04:08:58.593Z,86.36
2023-05-02T04:11:27.353Z,85.81
2023-05-02T04:13:54.974Z,85.93
2023-05-02T04:16:22.738Z,84.91
2023-05-02T04:18:51.054Z,84.73
2023-05-02T04:21:18.546Z,84.77
2023-05-02T04:23:45.988Z,84.62
2023-05-02T04:26:14.968Z,83.95
2023-05-02T04:28:42.358Z,83.08
2023-05-02T04:31:09.945Z,82.59
2023-05-02T04:33:37.811Z,81.90
2023-05-02T04:36:05.667Z,81.92
2023-05-02T04:38:33.181Z,81.60
2023-05-02T04:41:00.652Z,81.05
2023-05-02T04:43:37.709Z,80.93
2023-05-02T04:46:05.119Z,80.23
2023-05-02T04:48:33.740Z,79.40
2023-05-02T04:51:01.586Z,79.52
2023-05-02T04:53:29.486Z,78.65
2023-05-02T04:55:57.740Z,78.29
2023-05-02T04:58:25.274Z,78.09
2023-05-02T05:00:52.831Z,78.19
2023-05-02T05:03:30.987Z,77.57
2023-05-02T05:05:58.729Z,77.33
2023-05-02T05:08:27.659Z,75.72
2023-05-02T05:10:55.533Z,75.10
2023-05-02T05:13:23.138Z,74.23
2023-05-02T05:15:51.364Z,73.43
2023-05-02T05:18:19.041Z,72.62
2023-05-02T05:20:46.604Z,71.80
2023-05-02T05:23:14.292Z,72.78
2023-05-02T05:25:44.989Z,72.30
2023-05-02T05:28:13.825Z,72.22
2023-05-02T05:30:41.692Z,72.07
2023-05-02T05:33:09.260Z,71.52
2023-05-02T05:35:37.205Z,71.10
2023-05-02T05:38:04.989Z,71.80
2023-05-02T05:40:32.766Z,72.26
2023-05-02T05:43:01.025Z,71.04
2023-05-02T05:45:28.531Z,69.60
2023-05-02T05:47:56.158Z,69.60
2023-05-02T05:50:24.107Z,68.22
2023-05-02T05:52:54.512Z,66.04
2023-05-02T05:55:22.036Z,65.53
2023-05-02T05:57:49.756Z,64.48
2023-05-02T06:00:17.735Z,63.65
2023-05-02T06:02:45.536Z,62.58
2023-05-02T06:05:13.357Z,61.64
2023-05-02T06:07:41.150Z,61.32
2023-05-02T06:10:09.949Z,61.07
2023-05-02T06:12:37.892Z,60.34
2023-05-02T06:15:05.837Z,58.02
2023-05-02T06:17:33.318Z,58.06
2023-05-02T06:20:01.200Z,58.60
2023-05-02T06:22:29.417Z,56.77
2023-05-02T06:24:57.091Z,56.02
2023-05-02T06:27:24.695Z,55.63
2023-05-02T06:29:53.348Z,55.46
2023-05-02T06:32:21.739Z,56.82
2023-05-02T06:34:49.202Z,57.57
2023-05-02T06:37:16.760Z,57.95
2023-05-02T06:39:44.411Z,58.76
2023-05-02T06:42:12.004Z,59.13
2023-05-02T06:44:39.766Z,59.06
2023-05-02T06:47:07.688Z,59.61
2023-05-02T06:49:35.674Z,59.02
2023-05-02T06:52:03.565Z,58.52
2023-05-02T06:54:31.088Z,57.34
2023-05-02T06:56:59.969Z,56.71
2023-05-02T06:59:28.180Z,56.04
2023-05-02T07:01:56.025Z,56.09
2023-05-02T07:04:23.524Z,54.77
2023-05-02T07:06:51.158Z,51.57
2023-05-02T07:09:19.250Z,49.63
2023-05-02T07:11:47.100Z,51.10
2023-05-02T07:14:15.068Z,52.01
2023-05-02T07:16:42.931Z,53.76
2023-05-02T07:19:10.894Z,54.00
2023-05-02T07:21:38.684Z,53.34
2023-05-02T07:24:06.613Z,50.38
2023-05-02T07:26:34.295Z,46.28
2023-05-02T07:29:01.763Z,48.28
2023-05-02T07:31:29.435Z,50.78
2023-05-02T07:33:57.551Z,52.52
2023-05-02T07:36:25.277Z,52.47
2023-05-02T07:38:53.207Z,53.66
2023-05-02T07:41:21.201Z,52.04
2023-05-02T07:43:48.994Z,51.09
2023-05-02T07:46:16.672Z,50.24
2023-05-02T07:48:44.628Z,50.61
2023-05-02T07:51:13.318Z,47.66
2023-05-02T07:53:40.806Z,45.53
2023-05-02T07:56:08.956Z,45.20
2023-05-02T07:58:37.279Z,45.40
2023-05-02T08:01:05.209Z,45.08
2023-05-02T08:03:32.766Z,46.33
2023-05-02T08:06:02.240Z,46.68
2023-05-02T08:08:30.209Z,46.13
2023-05-02T08:10:57.993Z,46.27
2023-05-02T08:13:25.748Z,48.88
2023-05-02T08:15:58.183Z,49.20
2023-05-02T08:18:25.907Z,50.91
2023-05-02T08:20:57.011Z,49.96
2023-05-02T08:23:24.860Z,49.73
2023-05-02T08:25:52.492Z,48.90
2023-05-02T08:28:19.967Z,49.61
2023-05-02T08:30:47.603Z,49.69
2023-05-02T08:33:15.413Z,49.50
2023-05-02T08:35:43.155Z,49.28
2023-05-02T08:38:11.385Z,49.76
2023-05-02T08:40:42.715Z,49.69
2023-05-02T08:43:13.889Z,50.00
2023-05-02T08:45:43.962Z,49.60
2023-05-02T08:48:15.087Z,49.47
2023-05-02T08:50:48.490Z,49.49
2023-05-02T08:53:18.097Z,48.61
2023-05-02T08:55:46.863Z,48.24
2023-05-02T08:58:15.514Z,48.76
2023-05-02T09:00:48.349Z,48.74
2023-05-02T09:03:27.024Z,48.62
2023-05-02T09:06:02.835Z,48.04
2023-05-02T09:08:30.261Z,48.16
2023-05-02T09:10:57.960Z,48.69
2023-05-02T09:13:36.753Z,49.45
2023-05-02T09:16:06.880Z,48.27
2023-05-02T09:18:40.130Z,48.09
2023-05-02T09:21:14.148Z,48.09
2023-05-02T09:23:44.136Z,47.39
2023-05-02T09:26:17.749Z,47.78
2023-05-02T09:28:53.121Z,47.59
2023-05-02T09:31:43.760Z,47.76
2023-05-02T09:34:14.513Z,48.21
2023-05-02T09:36:47.210Z,48.52
2023-05-02T09:39:17.813Z,48.83
2023-05-02T09:41:47.247Z,49.13
2023-05-02T09:44:20.161Z,48.74
2023-05-02T09:46:49.642Z,49.16
2023-05-02T09:49:21.215Z,49.79
2023-05-02T09:51:49.696Z,50.52
2023-05-02T09:54:37.026Z,54.05
2023-05-02T09:57:04.772Z,58.02
2023-05-02T09:59:32.259Z,61.50
2023-05-02T10:02:03.638Z,64.14
2023-05-02T10:04:32.710Z,65.81
2023-05-02T10:07:02.069Z,66.44
2023-05-02T10:09:34.002Z,68.30
2023-05-02T10:12:06.766Z,70.51
2023-05-02T10:14:39.985Z,71.86
2023-05-02T10:17:23.166Z,73.06
2023-05-02T10:19:56.999Z,74.54
2023-05-02T10:22:25.896Z,74.89
2023-05-02T10:24:53.997Z,76.59
2023-05-02T10:27:22.348Z,77.44
2023-05-02T10:29:52.850Z,78.79
2023-05-02T10:32:22.720Z,81.13
2023-05-02T10:34:51.885Z,81.21
2023-05-02T10:37:20.136Z,82.93
2023-05-02T10:39:47.997Z,83.95
2023-05-02T10:42:15.781Z,100.00
2023-05-02T10:44:44.383Z,100.00
2023-05-02T10:47:32.009Z,100.00
2023-05-02T10:50:03.244Z,100.00
2023-05-02T10:52:38.096Z,100.00
2023-05-02T10:55:21.841Z,100.00
2023-05-02T10:58:01.389Z,100.00
2023-05-02T11:00:32.531Z,100.00
2023-05-02T11:03:01.208Z,100.00
2023-05-02T11:05:29.079Z,100.00
2023-05-02T11:08:14.986Z,100.00
2023-05-02T11:10:43.391Z,100.00
2023-05-02T11:13:11.153Z,100.00
2023-05-02T11:15:41.649Z,100.00
2023-05-02T11:18:14.491Z,100.00
2023-05-02T11:20:43.933Z,100.00
2023-05-02T11:23:21.449Z,100.00
2023-05-02T11:25:50.966Z,100.00
2023-05-02T11:28:36.923Z,100.00
2023-05-02T11:31:06.640Z,100.00
2023-05-02T11:33:34.542Z,100.00
2023-05-02T11:36:02.791Z,100.00
2023-05-02T11:38:39.467Z,100.00
2023-05-02T11:41:07.357Z,100.00
2023-05-02T11:43:35.071Z,100.00
2023-05-02T11:46:05.125Z,100.00
2023-05-02T11:48:33.179Z,100.00
2023-05-02T11:51:07.149Z,100.00
2023-05-02T11:53:41.260Z,100.00
2023-05-02T11:56:09.149Z,100.00
2023-05-02T11:58:37.127Z,100.00
2023-05-02T12:01:15.078Z,100.00
2023-05-02T12:03:45.143Z,100.00
2023-05-02T12:06:15.482Z,100.00
2023-05-02T12:08:44.757Z,100.00
2023-05-02T12:11:16.874Z,100.00
2023-05-02T12:13:47.182Z,100.00
2023-05-02T12:16:15.637Z,100.00
2023-05-02T12:18:43.784Z,100.00
2023-05-02T12:21:11.508Z,100.00
2023-05-02T12:23:40.493Z,100.00
2023-05-02T12:26:21.478Z,100.00
2023-05-02T12:28:50.979Z,100.00
2023-05-02T12:31:19.771Z,100.00
2023-05-02T12:33:52.499Z,100.00
2023-05-02T12:36:20.086Z,100.00
2023-05-02T12:38:53.173Z,100.00
2023-05-02T12:41:43.822Z,100.00
2023-05-02T12:44:11.702Z,100.00
2023-05-02T12:47:00.548Z,100.00
2023-05-02T12:49:28.338Z,100.00
2023-05-02T12:51:56.446Z,100.00
2023-05-02T12:54:26.213Z,100.00
2023-05-02T12:56:53.940Z,100.00
2023-05-02T12:59:27.446Z,100.00
2023-05-02T13:01:55.030Z,100.00
2023-05-02T13:04:33.308Z,100.00
2023-05-02T13:07:01.216Z,100.00
2023-05-02T13:09:28.804Z,100.00
2023-05-02T13:11:57.131Z,100.00
2023-05-02T13:14:25.851Z,100.00
2023-05-02T13:16:55.307Z,100.00
2023-05-02T13:19:23.235Z,100.00
2023-05-02T13:21:51.048Z,100.00
2023-05-02T13:24:19.090Z,100.00
2023-05-02T13:26:46.811Z,100.00
2023-05-02T13:29:14.443Z,100.00
2023-05-02T13:31:41.976Z,100.00
2023-05-02T13:34:09.677Z,100.00
2023-05-02T13:36:40.900Z,100.00
2023-05-02T13:39:08.459Z,100.00
2023-05-02T13:41:37.400Z,100.00
2023-05-02T13:44:05.506Z,100.00
2023-05-02T13:46:36.720Z,100.00
2023-05-02T13:49:05.305Z,100.00
2023-05-02T13:51:33.097Z,100.00
2023-05-02T13:54:01.269Z,100.00
2023-05-02T13:56:29.106Z,100.00
2023-05-02T13:58:56.903Z,100.00
2023-05-02T14:01:26.765Z,100.00
2023-05-02T14:03:54.830Z,100.00
2023-05-02T14:06:22.802Z,100.00
2023-05-02T14:08:53.764Z,100.00
2023-05-02T14:11:21.472Z,100.00
2023-05-02T14:13:49.259Z,100.00
2023-05-02T14:16:17.028Z,100.00
2023-05-02T14:18:45.718Z,100.00
2023-05-02T14:21:13.274Z,100.00
2023-05-02T14:23:41.061Z,100.00
2023-05-02T14:26:09.068Z,100.00
2023-05-02T14:28:38.492Z,100.00
2023-05-02T14:31:14.236Z,100.00
2023-05-02T14:33:41.851Z,100.00
2023-05-02T14:36:09.323Z,100.00
2023-05-02T14:38:36.865Z,100.00
2023-05-02T14:41:04.497Z,100.00
2023-05-02T14:43:32.233Z,100.00
2023-05-02T14:46:00.040Z,100.00
2023-05-02T14:48:28.149Z,100.00
2023-05-02T14:50:57.442Z,100.00
2023-05-02T14:53:25.435Z,100.00
2023-05-02T14:55:53.188Z,100.00
2023-05-02T14:58:21.105Z,100.00
2023-05-02T15:00:48.822Z,100.00
2023-05-02T15:03:17.170Z,100.00
2023-05-02T15:05:45.654Z,100.00
2023-05-02T15:08:13.313Z,100.00
2023-05-02T15:10:40.918Z,100.00
2023-05-02T15:13:09.023Z,100.00
2023-05-02T15:15:37.586Z,100.00
2023-05-02T15:18:05.870Z,100.00
2023-05-02T15:20:33.643Z,100.00
2023-05-02T15:23:03.558Z,100.00
2023-05-02T15:25:31.681Z,100.00
2023-05-02T15:27:59.262Z,100.00
2023-05-02T15:30:26.850Z,100.00
2023-05-02T15:32:54.444Z,100.00
2023-05-02T15:35:21.941Z,100.00
2023-05-02T15:37:49.535Z,100.00
2023-05-02T15:40:17.130Z,100.00
2023-05-02T15:42:45.456Z,100.00
2023-05-02T15:45:14.605Z,100.00
2023-05-02T15:47:42.499Z,100.00
2023-05-02T15:50:11.127Z,100.00
2023-05-02T15:52:38.638Z,100.00
2023-05-02T15:55:06.693Z,100.00
2023-05-02T15:57:34.485Z,100.00
2023-05-02T16:00:02.286Z,100.00
2023-05-02T16:02:31.137Z,100.00
2023-05-02T16:04:58.685Z,100.00
2023-05-02T16:07:26.518Z,100.00
2023-05-02T16:09:54.354Z,100.00
2023-05-02T16:12:22.218Z,100.00
2023-05-02T16:14:50.000Z,100.00
2023-05-02T16:17:17.758Z,100.00
2023-05-02T16:19:45.363Z,100.00
2023-05-02T16:22:13.232Z,100.00
2023-05-02T16:24:41.364Z,100.00
2023-05-02T16:27:09.937Z,100.00
2023-05-02T16:29:37.970Z,100.00
2023-05-02T16:32:06.077Z,100.00
2023-05-02T16:34:34.017Z,100.00
2023-05-02T16:37:03.259Z,100.00
2023-05-02T16:39:31.586Z,100.00
2023-05-02T16:41:59.117Z,100.00
2023-05-02T16:44:26.896Z,100.00
2023-05-02T16:46:54.874Z,100.00
2023-05-02T16:49:22.883Z,100.00
2023-05-02T16:51:51.830Z,100.00
2023-05-02T16:54:19.622Z,100.00
2023-05-02T16:56:47.606Z,100.00
2023-05-02T16:59:15.503Z,100.00
2023-05-02T17:01:43.609Z,100.00
2023-05-02T17:04:11.182Z,100.00
2023-05-02T17:06:39.136Z,100.00
2023-05-02T17:09:07.415Z,100.00
2023-05-02T17:11:35.233Z,100.00
2023-05-02T17:14:03.055Z,100.00
2023-05-02T17:16:30.995Z,100.00
2023-05-02T17:18:58.810Z,100.00
2023-05-02T17:21:27.813Z,100.00
2023-05-02T17:23:55.781Z,100.00
2023-05-02T17:26:23.631Z,100.00
2023-05-02T17:28:53.623Z,100.00
2023-05-02T17:31:21.709Z,100.00
2023-05-02T17:33:49.889Z,100.00
2023-05-02T17:36:17.699Z,100.00
2023-05-02T17:38:45.813Z,100.00
2023-05-02T17:41:15.004Z,100.00
2023-05-02T17:43:43.120Z,100.00
2023-05-02T17:46:11.146Z,100.00
2023-05-02T17:48:42.942Z,100.00
2023-05-02T17:51:11.948Z,100.00
2023-05-02T17:53:39.648Z,100.00
2023-05-02T17:56:07.417Z,100.00
2023-05-02T17:58:36.518Z,100.00
2023-05-02T18:01:09.243Z,100.00
2023-05-02T18:03:38.799Z,100.00
2023-05-02T18:06:07.215Z,100.00
2023-05-02T18:08:35.274Z,100.00
2023-05-02T18:11:03.496Z,100.00
2023-05-02T18:13:32.374Z,100.00
2023-05-02T18:16:04.819Z,100.00
2023-05-02T18:18:36.500Z,100.00
2023-05-02T18:21:06.150Z,100.00
2023-05-02T18:23:33.905Z,100.00
2023-05-02T18:26:02.060Z,100.00
2023-05-02T18:28:30.354Z,100.00
2023-05-02T18:30:58.373Z,100.00
2023-05-02T18:33:26.195Z,100.00
2023-05-02T18:35:53.917Z,100.00
2023-05-02T18:38:22.088Z,100.00
2023-05-02T18:40:50.037Z,100.00
2023-05-02T18:43:18.074Z,100.00
2023-05-02T18:45:46.277Z,100.00
2023-05-02T18:48:14.242Z,100.00
2023-05-02T18:50:42.514Z,100.00
2023-05-02T18:53:10.524Z,100.00
2023-05-02T18:55:38.375Z,100.00
2023-05-02T18:58:06.421Z,100.00
2023-05-02T19:00:36.908Z,100.00
2023-05-02T19:03:05.227Z,100.00
2023-05-02T19:05:35.119Z,100.00
2023-05-02T19:08:05.381Z,100.00
2023-05-02T19:10:34.448Z,100.00
2023-05-02T19:13:02.746Z,100.00
2023-05-02T19:15:30.818Z,100.00
2023-05-02T19:17:58.948Z,100.00
2023-05-02T19:20:28.220Z,100.00
2023-05-02T19:23:10.974Z,100.00
2023-05-02T19:25:45.434Z,100.00
2023-05-02T19:28:15.826Z,100.00
2023-05-02T19:30:44.412Z,100.00
2023-05-02T19:33:12.632Z,100.00
2023-05-02T19:35:40.624Z,100.00
2023-05-02T19:38:08.434Z,100.00
2023-05-02T19:40:37.551Z,100.00
2023-05-02T19:43:05.273Z,100.00
2023-05-02T19:45:33.349Z,100.00
2023-05-02T19:48:01.599Z,100.00
2023-05-02T19:50:29.645Z,100.00
2023-05-02T19:52:58.027Z,100.00
2023-05-02T19:55:25.967Z,100.00
2023-05-02T19:57:54.331Z,100.00
2023-05-02T20:00:22.219Z,100.00
2023-05-02T20:02:51.475Z,100.00
2023-05-02T20:05:19.971Z,100.00
2023-05-02T20:07:48.111Z,100.00
2023-05-02T20:10:18.424Z,100.00
2023-05-02T20:12:47.024Z,100.00
2023-05-02T20:15:16.853Z,100.00
2023-05-02T20:17:45.088Z,100.00
2023-05-02T20:20:13.425Z,100.00
2023-05-02T20:22:41.464Z,100.00
2023-05-02T20:25:11.838Z,100.00
2023-05-02T20:27:39.580Z,100.00
2023-05-02T20:30:10.787Z,100.00
2023-05-02T20:32:38.807Z,100.00
2023-05-02T20:35:07.226Z,100.00
2023-05-02T20:37:35.084Z,100.00
2023-05-02T20:40:05.422Z,100.00
2023-05-02T20:42:33.610Z,100.00
2023-05-02T20:45:02.720Z,100.00
2023-05-02T20:47:31.155Z,100.00
2023-05-02T20:49:59.031Z,100.00
2023-05-02T20:52:26.706Z,100.00
2023-05-02T20:54:57.301Z,100.00
2023-05-02T20:57:24.847Z,100.00
2023-05-02T20:59:52.384Z,100.00
2023-05-02T21:02:20.065Z,100.00
2023-05-02T21:04:47.547Z,100.00
2023-05-02T21:07:15.620Z,100.00
2023-05-02T21:09:43.144Z,100.00
2023-05-02T21:12:11.116Z,100.00
2023-05-02T21:14:38.658Z,100.00
2023-05-02T21:17:06.534Z,100.00
2023-05-02T21:19:34.841Z,100.00
2023-05-02T21:22:02.810Z,100.00
2023-05-02T21:24:30.444Z,100.00
2023-05-02T21:26:58.575Z,100.00
2023-05-02T21:29:26.395Z,100.00
2023-05-02T21:31:54.926Z,100.00
2023-05-02T21:34:22.590Z,100.00
2023-05-02T21:36:50.060Z,100.00
2023-05-02T21:39:18.354Z,100.00
2023-05-02T21:41:45.977Z,100.00
2023-05-02T21:44:14.402Z,100.00
2023-05-02T21:46:42.436Z,100.00
2023-05-02T21:49:10.430Z,100.00
2023-05-02T21:51:40.529Z,100.00
2023-05-02T21:54:08.418Z,100.00
2023-05-02T21:56:36.210Z,100.00
2023-05-02T21:59:03.974Z,100.00
2023-05-02T22:01:31.829Z,100.00
2023-05-02T22:03:59.623Z,100.00
2023-05-02T22:06:28.450Z,100.00
2023-05-02T22:08:56.094Z,100.00
2023-05-02T22:11:24.356Z,100.00
2023-05-02T22:13:51.890Z,100.00
2023-05-02T22:16:19.955Z,100.00
2023-05-02T22:18:49.509Z,100.00
2023-05-02T22:21:18.880Z,100.00
2023-05-02T22:23:46.742Z,100.00
2023-05-02T22:26:15.006Z,100.00
2023-05-02T22:28:49.011Z,100.00
2023-05-02T22:31:17.333Z,100.00
2023-05-02T22:33:49.684Z,100.00
2023-05-02T22:36:17.746Z,100.00
2023-05-02T22:38:45.555Z,100.00
2023-05-02T22:41:13.260Z,100.00
2023-05-02T22:43:41.003Z,100.00
2023-05-02T22:46:08.809Z,100.00
2023-05-02T22:48:36.702Z,100.00
2023-05-02T22:51:04.630Z,100.00
2023-05-02T22:53:32.435Z,100.00
2023-05-02T22:55:59.969Z,100.00
2023-05-02T22:58:27.547Z,100.00
2023-05-02T23:00:55.034Z,100.00
2023-05-02T23:03:22.921Z,100.00
2023-05-02T23:05:51.047Z,100.00
2023-05-02T23:08:18.744Z,100.00
2023-05-02T23:10:46.543Z,100.00
2023-05-02T23:13:14.482Z,100.00
2023-05-02T23:15:42.361Z,100.00
2023-05-02T23:18:10.579Z,100.00
2023-05-02T23:20:38.382Z,100.00
2023-05-02T23:23:06.161Z,100.00
2023-05-02T23:25:35.837Z,100.00
2023-05-02T23:28:03.687Z,100.00
2023-05-02T23:30:32.164Z,100.00
2023-05-02T23:33:00.628Z,100.00
2023-05-02T23:35:28.239Z,100.00
2023-05-02T23:37:55.785Z,100.00
2023-05-02T23:40:23.727Z,100.00
2023-05-02T23:42:51.533Z,100.00
2023-05-02T23:45:19.910Z,100.00
2023-05-02T23:47:47.433Z,100.00
2023-05-02T23:50:15.132Z,100.00
2023-05-02T23:52:42.969Z,100.00
2023-05-02T23:55:11.015Z,100.00
2023-05-02T23:57:38.727Z,100.00
